sensor_id;sensor_type;location;lat;lon;timestamp;P1;durP1;ratioP1;P2;durP2;ratioP2
11608;SDS011;5860;52.018;8.536;2023-04-03T00:00:55;3.20;;;1.17;;
11608;SDS011;5860;52.018;8.536;2023-04-03T00:03:23;5.33;;;1.40;;
11608;SDS011;5860;52.018;8.536;2023-04-03T00:05:49;1.60;;;1.00;;
11608;SDS011;5860;52.018;8.536;2023-04-03T00:08:24;5.37;;;1.50;;
11608;SDS011;5860;52.018;8.536;2023-04-03T00:10:52;4.07;;;1.17;;
11608;SDS011;5860;52.018;8.536;2023-04-03T00:13:19;3.20;;;1.10;;
11608;SDS011;5860;52.018;8.536;2023-04-03T00:15:46;4.33;;;1.07;;
11608;SDS011;5860;52.018;8.536;2023-04-03T00:18:12;4.63;;;1.33;;
11608;SDS011;5860;52.018;8.536;2023-04-03T00:20:40;3.63;;;1.10;;
11608;SDS011;5860;52.018;8.536;2023-04-03T00:23:07;5.93;;;1.00;;
11608;SDS011;5860;52.018;8.536;2023-04-03T00:25:34;3.90;;;1.10;;
11608;SDS011;5860;52.018;8.536;2023-04-03T00:28:02;6.80;;;1.37;;
11608;SDS011;5860;52.018;8.536;2023-04-03T00:30:30;3.50;;;1.23;;
11608;SDS011;5860;52.018;8.536;2023-04-03T00:32:57;2.83;;;1.20;;
11608;SDS011;5860;52.018;8.536;2023-04-03T00:35:25;3.13;;;1.10;;
11608;SDS011;5860;52.018;8.536;2023-04-03T00:37:53;4.27;;;1.50;;
11608;SDS011;5860;52.018;8.536;2023-04-03T00:40:23;5.80;;;1.30;;
11608;SDS011;5860;52.018;8.536;2023-04-03T00:42:52;2.83;;;1.20;;
11608;SDS011;5860;52.018;8.536;2023-04-03T00:45:36;4.00;;;1.20;;
11608;SDS011;5860;52.018;8.536;2023-04-03T00:48:08;2.40;;;1.20;;
11608;SDS011;5860;52.018;8.536;2023-04-03T00:50:40;4.47;;;1.20;;
11608;SDS011;5860;52.018;8.536;2023-04-03T00:53:10;4.03;;;1.20;;
11608;SDS011;5860;52.018;8.536;2023-04-03T00:55:40;5.83;;;1.20;;
11608;SDS011;5860;52.018;8.536;2023-04-03T00:58:09;3.20;;;1.03;;
11608;SDS011;5860;52.018;8.536;2023-04-03T01:00:38;3.37;;;1.10;;
11608;SDS011;5860;52.018;8.536;2023-04-03T01:03:09;5.33;;;1.40;;
11608;SDS011;5860;52.018;8.536;2023-04-03T01:05:36;6.30;;;1.50;;
11608;SDS011;5860;52.018;8.536;2023-04-03T01:08:03;3.00;;;1.30;;
11608;SDS011;5860;52.018;8.536;2023-04-03T01:10:30;3.57;;;1.40;;
11608;SDS011;5860;52.018;8.536;2023-04-03T01:12:57;3.23;;;1.30;;
11608;SDS011;5860;52.018;8.536;2023-04-03T01:15:27;5.23;;;1.10;;
11608;SDS011;5860;52.018;8.536;2023-04-03T01:18:01;6.90;;;1.20;;
11608;SDS011;5860;52.018;8.536;2023-04-03T01:25:41;3.23;;;1.37;;
11608;SDS011;5860;52.018;8.536;2023-04-03T01:28:10;4.07;;;1.03;;
11608;SDS011;5860;52.018;8.536;2023-04-03T01:33:41;3.13;;;1.03;;
11608;SDS011;5860;52.018;8.536;2023-04-03T01:36:09;2.10;;;1.10;;
11608;SDS011;5860;52.018;8.536;2023-04-03T01:38:39;3.70;;;0.83;;
11608;SDS011;5860;52.018;8.536;2023-04-03T01:41:06;5.60;;;1.10;;
11608;SDS011;5860;52.018;8.536;2023-04-03T01:43:33;5.03;;;1.40;;
11608;SDS011;5860;52.018;8.536;2023-04-03T01:46:00;2.87;;;1.13;;
11608;SDS011;5860;52.018;8.536;2023-04-03T01:48:27;3.60;;;1.40;;
11608;SDS011;5860;52.018;8.536;2023-04-03T01:50:54;4.43;;;1.40;;
11608;SDS011;5860;52.018;8.536;2023-04-03T01:53:21;5.00;;;1.40;;
11608;SDS011;5860;52.018;8.536;2023-04-03T01:55:48;4.63;;;1.13;;
11608;SDS011;5860;52.018;8.536;2023-04-03T01:58:15;4.77;;;1.17;;
11608;SDS011;5860;52.018;8.536;2023-04-03T02:00:42;5.10;;;1.73;;
11608;SDS011;5860;52.018;8.536;2023-04-03T02:03:09;5.17;;;1.17;;
11608;SDS011;5860;52.018;8.536;2023-04-03T02:05:36;3.40;;;0.90;;
11608;SDS011;5860;52.018;8.536;2023-04-03T02:08:03;6.57;;;1.53;;
11608;SDS011;5860;52.018;8.536;2023-04-03T02:10:30;3.23;;;1.40;;
11608;SDS011;5860;52.018;8.536;2023-04-03T02:12:57;2.60;;;1.20;;
11608;SDS011;5860;52.018;8.536;2023-04-03T02:15:23;4.90;;;1.57;;
11608;SDS011;5860;52.018;8.536;2023-04-03T02:17:51;5.77;;;0.90;;
11608;SDS011;5860;52.018;8.536;2023-04-03T02:20:18;6.00;;;1.57;;
11608;SDS011;5860;52.018;8.536;2023-04-03T02:22:45;3.63;;;1.30;;
11608;SDS011;5860;52.018;8.536;2023-04-03T02:25:13;6.23;;;1.60;;
11608;SDS011;5860;52.018;8.536;2023-04-03T02:27:40;4.73;;;1.10;;
11608;SDS011;5860;52.018;8.536;2023-04-03T02:30:07;4.43;;;1.20;;
11608;SDS011;5860;52.018;8.536;2023-04-03T02:32:37;5.67;;;1.20;;
11608;SDS011;5860;52.018;8.536;2023-04-03T02:35:04;2.77;;;1.30;;
11608;SDS011;5860;52.018;8.536;2023-04-03T02:37:31;2.00;;;1.10;;
11608;SDS011;5860;52.018;8.536;2023-04-03T02:39:58;6.33;;;0.90;;
11608;SDS011;5860;52.018;8.536;2023-04-03T02:42:26;3.13;;;1.20;;
11608;SDS011;5860;52.018;8.536;2023-04-03T02:44:53;3.67;;;1.03;;
11608;SDS011;5860;52.018;8.536;2023-04-03T02:47:22;4.00;;;1.27;;
11608;SDS011;5860;52.018;8.536;2023-04-03T02:49:49;7.33;;;1.37;;
11608;SDS011;5860;52.018;8.536;2023-04-03T02:52:16;7.73;;;1.67;;
11608;SDS011;5860;52.018;8.536;2023-04-03T02:54:42;5.23;;;1.27;;
11608;SDS011;5860;52.018;8.536;2023-04-03T02:57:09;4.60;;;1.40;;
11608;SDS011;5860;52.018;8.536;2023-04-03T02:59:37;4.30;;;1.40;;
11608;SDS011;5860;52.018;8.536;2023-04-03T03:02:07;4.43;;;1.33;;
11608;SDS011;5860;52.018;8.536;2023-04-03T03:04:35;2.73;;;1.10;;
11608;SDS011;5860;52.018;8.536;2023-04-03T03:07:03;4.63;;;1.40;;
11608;SDS011;5860;52.018;8.536;2023-04-03T03:09:30;6.20;;;1.40;;
11608;SDS011;5860;52.018;8.536;2023-04-03T03:11:56;3.50;;;1.57;;
11608;SDS011;5860;52.018;8.536;2023-04-03T03:14:23;3.77;;;1.60;;
11608;SDS011;5860;52.018;8.536;2023-04-03T03:16:50;7.50;;;2.00;;
11608;SDS011;5860;52.018;8.536;2023-04-03T03:19:18;6.73;;;1.60;;
11608;SDS011;5860;52.018;8.536;2023-04-03T03:21:44;5.83;;;1.70;;
11608;SDS011;5860;52.018;8.536;2023-04-03T03:24:11;3.70;;;1.50;;
11608;SDS011;5860;52.018;8.536;2023-04-03T03:26:38;5.73;;;1.63;;
11608;SDS011;5860;52.018;8.536;2023-04-03T03:29:06;7.20;;;1.40;;
11608;SDS011;5860;52.018;8.536;2023-04-03T03:31:33;4.43;;;1.10;;
11608;SDS011;5860;52.018;8.536;2023-04-03T03:34:00;4.30;;;1.53;;
11608;SDS011;5860;52.018;8.536;2023-04-03T03:36:27;4.57;;;1.50;;
11608;SDS011;5860;52.018;8.536;2023-04-03T03:38:54;3.93;;;1.70;;
11608;SDS011;5860;52.018;8.536;2023-04-03T03:41:21;6.07;;;1.27;;
11608;SDS011;5860;52.018;8.536;2023-04-03T03:43:47;3.30;;;1.43;;
11608;SDS011;5860;52.018;8.536;2023-04-03T03:46:15;7.20;;;1.27;;
11608;SDS011;5860;52.018;8.536;2023-04-03T03:48:42;5.03;;;1.40;;
11608;SDS011;5860;52.018;8.536;2023-04-03T03:51:09;4.33;;;1.10;;
11608;SDS011;5860;52.018;8.536;2023-04-03T03:53:36;7.23;;;1.80;;
11608;SDS011;5860;52.018;8.536;2023-04-03T03:56:03;4.47;;;1.27;;
11608;SDS011;5860;52.018;8.536;2023-04-03T03:58:31;4.00;;;1.33;;
11608;SDS011;5860;52.018;8.536;2023-04-03T04:01:03;2.97;;;1.73;;
11608;SDS011;5860;52.018;8.536;2023-04-03T04:03:32;4.47;;;1.57;;
11608;SDS011;5860;52.018;8.536;2023-04-03T04:05:59;5.70;;;1.33;;
11608;SDS011;5860;52.018;8.536;2023-04-03T04:08:26;4.73;;;1.43;;
11608;SDS011;5860;52.018;8.536;2023-04-03T04:10:53;7.17;;;1.70;;
11608;SDS011;5860;52.018;8.536;2023-04-03T04:13:20;5.87;;;1.53;;
11608;SDS011;5860;52.018;8.536;2023-04-03T04:15:47;5.50;;;1.33;;
11608;SDS011;5860;52.018;8.536;2023-04-03T04:18:14;3.77;;;1.50;;
11608;SDS011;5860;52.018;8.536;2023-04-03T04:20:42;5.03;;;1.27;;
11608;SDS011;5860;52.018;8.536;2023-04-03T04:23:10;5.33;;;1.57;;
11608;SDS011;5860;52.018;8.536;2023-04-03T04:25:37;4.50;;;1.43;;
11608;SDS011;5860;52.018;8.536;2023-04-03T04:28:04;4.83;;;1.90;;
11608;SDS011;5860;52.018;8.536;2023-04-03T04:30:31;3.27;;;1.17;;
11608;SDS011;5860;52.018;8.536;2023-04-03T04:32:58;4.40;;;1.77;;
11608;SDS011;5860;52.018;8.536;2023-04-03T04:35:26;2.43;;;1.20;;
11608;SDS011;5860;52.018;8.536;2023-04-03T04:37:53;3.37;;;1.33;;
11608;SDS011;5860;52.018;8.536;2023-04-03T04:40:20;5.57;;;1.73;;
11608;SDS011;5860;52.018;8.536;2023-04-03T04:42:48;5.40;;;1.60;;
11608;SDS011;5860;52.018;8.536;2023-04-03T04:45:15;4.77;;;1.70;;
11608;SDS011;5860;52.018;8.536;2023-04-03T04:47:42;7.30;;;1.70;;
11608;SDS011;5860;52.018;8.536;2023-04-03T04:50:09;9.33;;;1.93;;
11608;SDS011;5860;52.018;8.536;2023-04-03T04:52:38;4.57;;;1.40;;
11608;SDS011;5860;52.018;8.536;2023-04-03T04:55:05;4.37;;;1.50;;
11608;SDS011;5860;52.018;8.536;2023-04-03T04:57:32;5.23;;;1.43;;
11608;SDS011;5860;52.018;8.536;2023-04-03T04:59:59;4.30;;;1.80;;
11608;SDS011;5860;52.018;8.536;2023-04-03T05:02:26;8.37;;;1.70;;
11608;SDS011;5860;52.018;8.536;2023-04-03T05:04:54;6.50;;;1.40;;
11608;SDS011;5860;52.018;8.536;2023-04-03T05:07:21;4.33;;;1.53;;
11608;SDS011;5860;52.018;8.536;2023-04-03T05:09:48;4.17;;;1.67;;
11608;SDS011;5860;52.018;8.536;2023-04-03T05:12:16;4.30;;;1.50;;
11608;SDS011;5860;52.018;8.536;2023-04-03T05:14:43;3.20;;;1.57;;
11608;SDS011;5860;52.018;8.536;2023-04-03T05:17:10;9.23;;;2.27;;
11608;SDS011;5860;52.018;8.536;2023-04-03T05:19:37;8.37;;;1.57;;
11608;SDS011;5860;52.018;8.536;2023-04-03T05:22:04;6.20;;;1.80;;
11608;SDS011;5860;52.018;8.536;2023-04-03T05:24:31;7.30;;;2.00;;
11608;SDS011;5860;52.018;8.536;2023-04-03T05:26:58;4.37;;;1.57;;
11608;SDS011;5860;52.018;8.536;2023-04-03T05:29:25;5.93;;;1.30;;
11608;SDS011;5860;52.018;8.536;2023-04-03T05:31:52;9.27;;;1.80;;
11608;SDS011;5860;52.018;8.536;2023-04-03T05:34:19;4.80;;;1.63;;
11608;SDS011;5860;52.018;8.536;2023-04-03T05:36:46;3.40;;;1.23;;
11608;SDS011;5860;52.018;8.536;2023-04-03T05:39:13;4.17;;;1.40;;
11608;SDS011;5860;52.018;8.536;2023-04-03T05:41:40;4.73;;;1.30;;
11608;SDS011;5860;52.018;8.536;2023-04-03T05:44:07;5.73;;;1.60;;
11608;SDS011;5860;52.018;8.536;2023-04-03T05:46:34;4.60;;;1.20;;
11608;SDS011;5860;52.018;8.536;2023-04-03T05:49:02;4.27;;;1.63;;
11608;SDS011;5860;52.018;8.536;2023-04-03T05:51:30;6.80;;;2.20;;
11608;SDS011;5860;52.018;8.536;2023-04-03T05:54:03;7.90;;;2.00;;
11608;SDS011;5860;52.018;8.536;2023-04-03T05:56:50;4.50;;;1.30;;
11608;SDS011;5860;52.018;8.536;2023-04-03T05:59:17;7.53;;;1.60;;
11608;SDS011;5860;52.018;8.536;2023-04-03T06:01:44;6.13;;;1.40;;
11608;SDS011;5860;52.018;8.536;2023-04-03T06:04:12;5.47;;;1.87;;
11608;SDS011;5860;52.018;8.536;2023-04-03T06:06:47;5.07;;;1.43;;
11608;SDS011;5860;52.018;8.536;2023-04-03T06:09:18;6.80;;;1.77;;
11608;SDS011;5860;52.018;8.536;2023-04-03T06:11:47;3.57;;;1.40;;
11608;SDS011;5860;52.018;8.536;2023-04-03T06:14:14;3.47;;;1.17;;
11608;SDS011;5860;52.018;8.536;2023-04-03T06:16:41;6.13;;;1.40;;
11608;SDS011;5860;52.018;8.536;2023-04-03T06:19:08;4.53;;;1.40;;
11608;SDS011;5860;52.018;8.536;2023-04-03T06:21:37;4.57;;;1.33;;
11608;SDS011;5860;52.018;8.536;2023-04-03T06:24:04;6.13;;;1.43;;
11608;SDS011;5860;52.018;8.536;2023-04-03T06:26:32;4.03;;;1.30;;
11608;SDS011;5860;52.018;8.536;2023-04-03T06:29:00;4.57;;;1.50;;
11608;SDS011;5860;52.018;8.536;2023-04-03T06:31:28;7.87;;;1.67;;
11608;SDS011;5860;52.018;8.536;2023-04-03T06:33:56;4.80;;;1.60;;
11608;SDS011;5860;52.018;8.536;2023-04-03T06:36:23;3.73;;;1.40;;
11608;SDS011;5860;52.018;8.536;2023-04-03T06:38:50;5.00;;;1.53;;
11608;SDS011;5860;52.018;8.536;2023-04-03T06:41:17;4.43;;;1.57;;
11608;SDS011;5860;52.018;8.536;2023-04-03T06:43:44;4.87;;;1.67;;
11608;SDS011;5860;52.018;8.536;2023-04-03T06:46:15;6.87;;;1.70;;
11608;SDS011;5860;52.018;8.536;2023-04-03T06:48:43;4.27;;;1.90;;
11608;SDS011;5860;52.018;8.536;2023-04-03T06:53:58;4.70;;;1.83;;
11608;SDS011;5860;52.018;8.536;2023-04-03T06:56:26;3.93;;;1.70;;
11608;SDS011;5860;52.018;8.536;2023-04-03T06:58:54;5.37;;;1.77;;
11608;SDS011;5860;52.018;8.536;2023-04-03T07:01:24;4.40;;;1.80;;
11608;SDS011;5860;52.018;8.536;2023-04-03T07:03:55;4.00;;;2.00;;
11608;SDS011;5860;52.018;8.536;2023-04-03T07:06:23;3.13;;;1.53;;
11608;SDS011;5860;52.018;8.536;2023-04-03T07:08:53;4.60;;;1.90;;
11608;SDS011;5860;52.018;8.536;2023-04-03T07:11:21;4.00;;;1.50;;
11608;SDS011;5860;52.018;8.536;2023-04-03T07:13:51;2.43;;;1.20;;
11608;SDS011;5860;52.018;8.536;2023-04-03T07:16:18;6.97;;;1.60;;
11608;SDS011;5860;52.018;8.536;2023-04-03T07:18:46;3.50;;;1.40;;
11608;SDS011;5860;52.018;8.536;2023-04-03T07:21:13;7.93;;;1.50;;
11608;SDS011;5860;52.018;8.536;2023-04-03T07:23:40;4.00;;;1.40;;
11608;SDS011;5860;52.018;8.536;2023-04-03T07:26:07;4.30;;;1.50;;
11608;SDS011;5860;52.018;8.536;2023-04-03T07:28:35;3.83;;;1.23;;
11608;SDS011;5860;52.018;8.536;2023-04-03T07:31:04;3.40;;;1.17;;
11608;SDS011;5860;52.018;8.536;2023-04-03T07:33:35;2.47;;;1.00;;
11608;SDS011;5860;52.018;8.536;2023-04-03T07:36:04;3.87;;;1.30;;
11608;SDS011;5860;52.018;8.536;2023-04-03T07:38:34;4.90;;;1.43;;
11608;SDS011;5860;52.018;8.536;2023-04-03T07:41:03;4.50;;;1.10;;
11608;SDS011;5860;52.018;8.536;2023-04-03T07:43:31;3.50;;;1.10;;
11608;SDS011;5860;52.018;8.536;2023-04-03T07:45:58;2.40;;;1.10;;
11608;SDS011;5860;52.018;8.536;2023-04-03T07:48:27;2.97;;;0.80;;
11608;SDS011;5860;52.018;8.536;2023-04-03T07:50:54;5.47;;;1.00;;
11608;SDS011;5860;52.018;8.536;2023-04-03T07:53:26;1.80;;;0.73;;
11608;SDS011;5860;52.018;8.536;2023-04-03T07:55:56;2.40;;;0.90;;
11608;SDS011;5860;52.018;8.536;2023-04-03T07:58:25;3.63;;;1.20;;
11608;SDS011;5860;52.018;8.536;2023-04-03T08:00:53;3.43;;;1.03;;
11608;SDS011;5860;52.018;8.536;2023-04-03T08:03:20;3.80;;;1.00;;
11608;SDS011;5860;52.018;8.536;2023-04-03T08:05:48;2.77;;;0.90;;
11608;SDS011;5860;52.018;8.536;2023-04-03T08:08:17;4.53;;;1.13;;
11608;SDS011;5860;52.018;8.536;2023-04-03T08:10:53;3.73;;;1.00;;
11608;SDS011;5860;52.018;8.536;2023-04-03T08:13:22;3.33;;;1.30;;
11608;SDS011;5860;52.018;8.536;2023-04-03T08:15:49;5.97;;;1.23;;
11608;SDS011;5860;52.018;8.536;2023-04-03T08:18:17;2.77;;;0.87;;
11608;SDS011;5860;52.018;8.536;2023-04-03T08:20:47;2.97;;;1.00;;
11608;SDS011;5860;52.018;8.536;2023-04-03T08:23:15;3.40;;;1.27;;
11608;SDS011;5860;52.018;8.536;2023-04-03T08:25:45;1.83;;;0.97;;
11608;SDS011;5860;52.018;8.536;2023-04-03T08:28:12;3.73;;;0.97;;
11608;SDS011;5860;52.018;8.536;2023-04-03T08:30:40;1.83;;;0.80;;
11608;SDS011;5860;52.018;8.536;2023-04-03T08:33:09;3.13;;;1.00;;
11608;SDS011;5860;52.018;8.536;2023-04-03T08:35:40;2.40;;;1.00;;
11608;SDS011;5860;52.018;8.536;2023-04-03T08:38:09;2.40;;;1.10;;
11608;SDS011;5860;52.018;8.536;2023-04-03T08:40:37;6.27;;;1.20;;
11608;SDS011;5860;52.018;8.536;2023-04-03T08:43:23;4.40;;;1.10;;
11608;SDS011;5860;52.018;8.536;2023-04-03T08:45:55;2.97;;;1.07;;
11608;SDS011;5860;52.018;8.536;2023-04-03T08:48:27;2.10;;;1.00;;
11608;SDS011;5860;52.018;8.536;2023-04-03T08:51:02;4.80;;;0.93;;
11608;SDS011;5860;52.018;8.536;2023-04-03T08:53:46;4.37;;;0.97;;
11608;SDS011;5860;52.018;8.536;2023-04-03T08:56:23;3.43;;;1.03;;
11608;SDS011;5860;52.018;8.536;2023-04-03T08:58:55;2.43;;;1.10;;
11608;SDS011;5860;52.018;8.536;2023-04-03T09:01:26;5.23;;;1.17;;
11608;SDS011;5860;52.018;8.536;2023-04-03T09:04:14;3.13;;;0.80;;
11608;SDS011;5860;52.018;8.536;2023-04-03T09:06:49;2.73;;;1.00;;
11608;SDS011;5860;52.018;8.536;2023-04-03T09:09:32;4.63;;;1.07;;
11608;SDS011;5860;52.018;8.536;2023-04-03T09:12:27;1.87;;;0.83;;
11608;SDS011;5860;52.018;8.536;2023-04-03T09:15:15;2.80;;;0.70;;
11608;SDS011;5860;52.018;8.536;2023-04-03T09:21:31;4.47;;;1.23;;
11608;SDS011;5860;52.018;8.536;2023-04-03T09:24:04;4.07;;;1.10;;
11608;SDS011;5860;52.018;8.536;2023-04-03T09:29:14;2.50;;;0.90;;
11608;SDS011;5860;52.018;8.536;2023-04-03T09:31:48;4.67;;;1.30;;
11608;SDS011;5860;52.018;8.536;2023-04-03T09:34:26;6.63;;;0.83;;
11608;SDS011;5860;52.018;8.536;2023-04-03T09:37:33;2.10;;;0.83;;
11608;SDS011;5860;52.018;8.536;2023-04-03T09:40:27;3.10;;;1.30;;
11608;SDS011;5860;52.018;8.536;2023-04-03T09:43:18;4.00;;;1.03;;
11608;SDS011;5860;52.018;8.536;2023-04-03T09:45:52;1.80;;;0.90;;
11608;SDS011;5860;52.018;8.536;2023-04-03T09:48:20;3.13;;;1.10;;
11608;SDS011;5860;52.018;8.536;2023-04-03T09:53:36;4.63;;;0.87;;
11608;SDS011;5860;52.018;8.536;2023-04-03T09:56:18;4.63;;;1.03;;
11608;SDS011;5860;52.018;8.536;2023-04-03T09:59:08;1.73;;;0.90;;
11608;SDS011;5860;52.018;8.536;2023-04-03T10:01:43;3.00;;;1.00;;
11608;SDS011;5860;52.018;8.536;2023-04-03T10:04:47;1.90;;;1.00;;
11608;SDS011;5860;52.018;8.536;2023-04-03T10:07:37;7.33;;;1.27;;
11608;SDS011;5860;52.018;8.536;2023-04-03T10:10:17;2.70;;;0.70;;
11608;SDS011;5860;52.018;8.536;2023-04-03T10:12:46;4.57;;;0.93;;
11608;SDS011;5860;52.018;8.536;2023-04-03T10:15:15;3.90;;;0.90;;
11608;SDS011;5860;52.018;8.536;2023-04-03T10:20:47;4.90;;;0.90;;
11608;SDS011;5860;52.018;8.536;2023-04-03T10:23:24;3.50;;;1.07;;
11608;SDS011;5860;52.018;8.536;2023-04-03T10:28:57;3.37;;;0.60;;
11608;SDS011;5860;52.018;8.536;2023-04-03T10:31:46;3.00;;;0.90;;
11608;SDS011;5860;52.018;8.536;2023-04-03T10:34:40;3.47;;;1.00;;
11608;SDS011;5860;52.018;8.536;2023-04-03T10:37:34;1.97;;;1.00;;
11608;SDS011;5860;52.018;8.536;2023-04-03T10:45:57;2.00;;;1.00;;
11608;SDS011;5860;52.018;8.536;2023-04-03T10:54:40;3.83;;;0.80;;
11608;SDS011;5860;52.018;8.536;2023-04-03T10:57:13;3.47;;;1.00;;
11608;SDS011;5860;52.018;8.536;2023-04-03T10:59:44;3.00;;;0.87;;
11608;SDS011;5860;52.018;8.536;2023-04-03T11:02:33;2.23;;;0.90;;
11608;SDS011;5860;52.018;8.536;2023-04-03T11:05:16;1.47;;;0.70;;
11608;SDS011;5860;52.018;8.536;2023-04-03T11:08:03;2.67;;;0.70;;
11608;SDS011;5860;52.018;8.536;2023-04-03T11:10:42;3.70;;;1.00;;
11608;SDS011;5860;52.018;8.536;2023-04-03T11:13:14;1.93;;;0.87;;
11608;SDS011;5860;52.018;8.536;2023-04-03T11:15:46;3.80;;;1.03;;
11608;SDS011;5860;52.018;8.536;2023-04-03T11:18:27;3.30;;;0.90;;
11608;SDS011;5860;52.018;8.536;2023-04-03T11:21:03;1.33;;;0.60;;
11608;SDS011;5860;52.018;8.536;2023-04-03T11:23:39;2.37;;;0.90;;
11608;SDS011;5860;52.018;8.536;2023-04-03T11:26:19;3.73;;;1.10;;
11608;SDS011;5860;52.018;8.536;2023-04-03T11:28:59;2.77;;;1.00;;
11608;SDS011;5860;52.018;8.536;2023-04-03T11:31:52;3.43;;;1.00;;
11608;SDS011;5860;52.018;8.536;2023-04-03T11:34:45;3.03;;;1.13;;
11608;SDS011;5860;52.018;8.536;2023-04-03T11:37:23;3.33;;;1.00;;
11608;SDS011;5860;52.018;8.536;2023-04-03T11:39:59;2.63;;;1.00;;
11608;SDS011;5860;52.018;8.536;2023-04-03T11:48:00;4.17;;;1.00;;
11608;SDS011;5860;52.018;8.536;2023-04-03T11:50:50;5.30;;;0.97;;
11608;SDS011;5860;52.018;8.536;2023-04-03T12:01:03;3.23;;;0.80;;
11608;SDS011;5860;52.018;8.536;2023-04-03T12:08:46;4.73;;;1.00;;
11608;SDS011;5860;52.018;8.536;2023-04-03T12:11:19;3.27;;;0.90;;
11608;SDS011;5860;52.018;8.536;2023-04-03T12:16:28;2.60;;;0.93;;
11608;SDS011;5860;52.018;8.536;2023-04-03T12:29:38;1.63;;;0.87;;
11608;SDS011;5860;52.018;8.536;2023-04-03T12:48:38;3.83;;;1.10;;
11608;SDS011;5860;52.018;8.536;2023-04-03T12:51:35;2.50;;;0.80;;
11608;SDS011;5860;52.018;8.536;2023-04-03T12:56:49;3.17;;;1.10;;
11608;SDS011;5860;52.018;8.536;2023-04-03T12:59:25;4.43;;;0.87;;
11608;SDS011;5860;52.018;8.536;2023-04-03T13:01:54;2.17;;;0.77;;
11608;SDS011;5860;52.018;8.536;2023-04-03T13:04:29;3.67;;;1.10;;
11608;SDS011;5860;52.018;8.536;2023-04-03T13:06:58;2.03;;;0.90;;
11608;SDS011;5860;52.018;8.536;2023-04-03T13:09:27;2.40;;;0.90;;
11608;SDS011;5860;52.018;8.536;2023-04-03T13:12:07;1.77;;;1.00;;
11608;SDS011;5860;52.018;8.536;2023-04-03T13:14:40;4.07;;;0.93;;
11608;SDS011;5860;52.018;8.536;2023-04-03T13:17:17;1.50;;;0.70;;
11608;SDS011;5860;52.018;8.536;2023-04-03T13:19:44;3.40;;;0.90;;
11608;SDS011;5860;52.018;8.536;2023-04-03T13:22:33;3.07;;;0.80;;
11608;SDS011;5860;52.018;8.536;2023-04-03T13:25:06;2.67;;;1.00;;
11608;SDS011;5860;52.018;8.536;2023-04-03T13:27:37;2.80;;;0.83;;
11608;SDS011;5860;52.018;8.536;2023-04-03T13:30:06;4.17;;;0.87;;
11608;SDS011;5860;52.018;8.536;2023-04-03T13:32:44;1.20;;;0.80;;
11608;SDS011;5860;52.018;8.536;2023-04-03T13:35:27;5.20;;;0.90;;
11608;SDS011;5860;52.018;8.536;2023-04-03T13:37:56;7.83;;;1.40;;
11608;SDS011;5860;52.018;8.536;2023-04-03T13:40:26;2.50;;;1.00;;
11608;SDS011;5860;52.018;8.536;2023-04-03T13:43:05;2.83;;;0.90;;
11608;SDS011;5860;52.018;8.536;2023-04-03T13:48:43;4.33;;;1.40;;
11608;SDS011;5860;52.018;8.536;2023-04-03T13:54:18;2.20;;;0.97;;
11608;SDS011;5860;52.018;8.536;2023-04-03T13:56:55;1.03;;;0.50;;
11608;SDS011;5860;52.018;8.536;2023-04-03T13:59:34;4.23;;;1.10;;
11608;SDS011;5860;52.018;8.536;2023-04-03T14:04:30;1.37;;;0.70;;
11608;SDS011;5860;52.018;8.536;2023-04-03T14:07:11;2.60;;;0.80;;
11608;SDS011;5860;52.018;8.536;2023-04-03T14:09:38;5.20;;;1.10;;
11608;SDS011;5860;52.018;8.536;2023-04-03T14:12:17;1.43;;;0.80;;
11608;SDS011;5860;52.018;8.536;2023-04-03T14:14:57;2.43;;;0.80;;
11608;SDS011;5860;52.018;8.536;2023-04-03T14:17:27;2.70;;;1.00;;
11608;SDS011;5860;52.018;8.536;2023-04-03T14:19:56;2.53;;;0.93;;
11608;SDS011;5860;52.018;8.536;2023-04-03T14:22:25;2.30;;;0.83;;
11608;SDS011;5860;52.018;8.536;2023-04-03T14:24:55;2.13;;;0.80;;
11608;SDS011;5860;52.018;8.536;2023-04-03T14:27:33;2.27;;;0.97;;
11608;SDS011;5860;52.018;8.536;2023-04-03T14:30:02;5.23;;;0.73;;
11608;SDS011;5860;52.018;8.536;2023-04-03T14:32:31;4.47;;;0.80;;
11608;SDS011;5860;52.018;8.536;2023-04-03T14:34:58;3.47;;;1.07;;
11608;SDS011;5860;52.018;8.536;2023-04-03T14:37:28;2.03;;;0.97;;
11608;SDS011;5860;52.018;8.536;2023-04-03T14:39:57;1.87;;;0.80;;
11608;SDS011;5860;52.018;8.536;2023-04-03T14:42:30;1.17;;;0.80;;
11608;SDS011;5860;52.018;8.536;2023-04-03T14:45:05;2.90;;;1.40;;
11608;SDS011;5860;52.018;8.536;2023-04-03T14:47:34;2.67;;;1.10;;
11608;SDS011;5860;52.018;8.536;2023-04-03T14:50:14;1.83;;;0.90;;
11608;SDS011;5860;52.018;8.536;2023-04-03T14:52:49;2.10;;;1.00;;
11608;SDS011;5860;52.018;8.536;2023-04-03T14:55:19;3.47;;;1.20;;
11608;SDS011;5860;52.018;8.536;2023-04-03T14:57:47;2.43;;;1.10;;
11608;SDS011;5860;52.018;8.536;2023-04-03T15:00:16;2.30;;;0.90;;
11608;SDS011;5860;52.018;8.536;2023-04-03T15:02:45;2.53;;;0.80;;
11608;SDS011;5860;52.018;8.536;2023-04-03T15:05:15;3.97;;;1.20;;
11608;SDS011;5860;52.018;8.536;2023-04-03T15:07:43;2.37;;;1.07;;
11608;SDS011;5860;52.018;8.536;2023-04-03T15:10:24;2.87;;;1.20;;
11608;SDS011;5860;52.018;8.536;2023-04-03T15:12:55;2.53;;;0.90;;
11608;SDS011;5860;52.018;8.536;2023-04-03T15:15:23;4.03;;;0.90;;
11608;SDS011;5860;52.018;8.536;2023-04-03T15:17:52;2.57;;;0.90;;
11608;SDS011;5860;52.018;8.536;2023-04-03T15:20:22;3.33;;;0.90;;
11608;SDS011;5860;52.018;8.536;2023-04-03T15:22:50;2.77;;;1.30;;
11608;SDS011;5860;52.018;8.536;2023-04-03T15:25:18;1.37;;;0.90;;
11608;SDS011;5860;52.018;8.536;2023-04-03T15:27:45;3.53;;;1.10;;
11608;SDS011;5860;52.018;8.536;2023-04-03T15:30:15;2.93;;;1.10;;
11608;SDS011;5860;52.018;8.536;2023-04-03T15:32:44;3.63;;;1.03;;
11608;SDS011;5860;52.018;8.536;2023-04-03T15:35:11;1.50;;;0.90;;
11608;SDS011;5860;52.018;8.536;2023-04-03T15:37:38;2.57;;;1.00;;
11608;SDS011;5860;52.018;8.536;2023-04-03T15:40:06;2.00;;;1.10;;
11608;SDS011;5860;52.018;8.536;2023-04-03T15:42:33;2.17;;;0.93;;
11608;SDS011;5860;52.018;8.536;2023-04-03T15:45:00;2.53;;;0.90;;
11608;SDS011;5860;52.018;8.536;2023-04-03T15:47:28;1.80;;;0.90;;
11608;SDS011;5860;52.018;8.536;2023-04-03T15:49:55;2.97;;;1.20;;
11608;SDS011;5860;52.018;8.536;2023-04-03T15:52:23;2.03;;;0.90;;
11608;SDS011;5860;52.018;8.536;2023-04-03T15:54:50;3.63;;;1.20;;
11608;SDS011;5860;52.018;8.536;2023-04-03T15:57:17;2.67;;;0.90;;
11608;SDS011;5860;52.018;8.536;2023-04-03T15:59:44;3.27;;;1.00;;
11608;SDS011;5860;52.018;8.536;2023-04-03T16:02:11;3.23;;;1.10;;
11608;SDS011;5860;52.018;8.536;2023-04-03T16:04:40;1.53;;;0.80;;
11608;SDS011;5860;52.018;8.536;2023-04-03T16:07:10;2.03;;;0.90;;
11608;SDS011;5860;52.018;8.536;2023-04-03T16:09:37;2.77;;;1.03;;
11608;SDS011;5860;52.018;8.536;2023-04-03T16:12:04;2.00;;;0.90;;
11608;SDS011;5860;52.018;8.536;2023-04-03T16:14:31;2.40;;;1.03;;
11608;SDS011;5860;52.018;8.536;2023-04-03T16:16:58;2.47;;;1.20;;
11608;SDS011;5860;52.018;8.536;2023-04-03T16:19:26;2.77;;;0.93;;
11608;SDS011;5860;52.018;8.536;2023-04-03T16:21:54;2.53;;;0.90;;
11608;SDS011;5860;52.018;8.536;2023-04-03T16:24:21;3.40;;;0.97;;
11608;SDS011;5860;52.018;8.536;2023-04-03T16:26:48;3.27;;;0.70;;
11608;SDS011;5860;52.018;8.536;2023-04-03T16:29:15;1.90;;;1.20;;
11608;SDS011;5860;52.018;8.536;2023-04-03T16:31:42;3.77;;;1.00;;
11608;SDS011;5860;52.018;8.536;2023-04-03T16:34:09;2.77;;;1.27;;
11608;SDS011;5860;52.018;8.536;2023-04-03T16:36:37;1.47;;;0.80;;
11608;SDS011;5860;52.018;8.536;2023-04-03T16:39:04;3.30;;;1.00;;
11608;SDS011;5860;52.018;8.536;2023-04-03T16:41:31;2.83;;;1.10;;
11608;SDS011;5860;52.018;8.536;2023-04-03T16:43:58;4.13;;;1.27;;
11608;SDS011;5860;52.018;8.536;2023-04-03T16:46:25;4.87;;;1.10;;
11608;SDS011;5860;52.018;8.536;2023-04-03T16:48:52;1.60;;;0.80;;
11608;SDS011;5860;52.018;8.536;2023-04-03T16:51:19;2.47;;;1.10;;
11608;SDS011;5860;52.018;8.536;2023-04-03T16:53:46;2.00;;;0.80;;
11608;SDS011;5860;52.018;8.536;2023-04-03T16:56:13;3.17;;;0.90;;
11608;SDS011;5860;52.018;8.536;2023-04-03T16:58:41;1.87;;;1.00;;